SWA2621 KLAS-KLAX
Flight info
| Callsign | SWA2621 |
|---|---|
| Flight time | N/A |
| Altitude | 30000 |
| Route | RADYR2 BLAQQ SHTNR ANJLL4 |
| Aircraft | B737/M-SADE2E3GIJ4RWZ/LB1D1 |
Departure
| Time | 2026-04-30 14:52 |
|---|---|
| Airport | Harry Reid International Airport (KLAS) |
Arrival
| Time | N/A |
|---|---|
| Airport | Los Angeles International Airport (KLAX) |
| Time | Latitude | Longitude | Altitude | Speed | Heading |
|---|---|---|---|---|---|
| 2026-04-30 14:29 | 36.08233 | -115.15276 | 2104 ft | 0 kts | 356° |
| 2026-04-30 14:43 | 36.08214 | -115.15273 | 2105 ft | 3 kts | 342° |
| 2026-04-30 14:43 | 36.08195 | -115.15262 | 2105 ft | 3 kts | 307° |
| 2026-04-30 14:43 | 36.08189 | -115.15243 | 2105 ft | 3 kts | 246° |
| 2026-04-30 14:43 | 36.08191 | -115.15240 | 2107 ft | 0 kts | 242° |
| 2026-04-30 14:46 | 36.08188 | -115.15245 | 2106 ft | 2 kts | 242° |
| 2026-04-30 14:46 | 36.08176 | -115.15273 | 2105 ft | 2 kts | 242° |
| 2026-04-30 14:46 | 36.08160 | -115.15312 | 2105 ft | 8 kts | 248° |
| 2026-04-30 14:47 | 36.08154 | -115.15395 | 2106 ft | 12 kts | 270° |
| 2026-04-30 14:47 | 36.08162 | -115.15502 | 2112 ft | 12 kts | 272° |
| 2026-04-30 14:47 | 36.08163 | -115.15608 | 2121 ft | 12 kts | 270° |
| 2026-04-30 14:47 | 36.08163 | -115.15710 | 2129 ft | 12 kts | 269° |
| 2026-04-30 14:48 | 36.08162 | -115.15819 | 2131 ft | 14 kts | 270° |
| 2026-04-30 14:48 | 36.08162 | -115.15948 | 2132 ft | 17 kts | 270° |
| 2026-04-30 14:48 | 36.08159 | -115.16075 | 2131 ft | 9 kts | 258° |
| 2026-04-30 14:48 | 36.08119 | -115.16129 | 2134 ft | 9 kts | 207° |
| 2026-04-30 14:49 | 36.08064 | -115.16161 | 2137 ft | 9 kts | 205° |
| 2026-04-30 14:49 | 36.08000 | -115.16198 | 2140 ft | 11 kts | 205° |
| 2026-04-30 14:49 | 36.07921 | -115.16243 | 2142 ft | 14 kts | 205° |
| 2026-04-30 14:49 | 36.07821 | -115.16300 | 2149 ft | 18 kts | 205° |
| 2026-04-30 14:50 | 36.07572 | -115.16442 | 2161 ft | 20 kts | 204° |
| 2026-04-30 14:50 | 36.07445 | -115.16514 | 2175 ft | 20 kts | 205° |
| 2026-04-30 14:51 | 36.07406 | -115.16662 | 2189 ft | 10 kts | 295° |
| 2026-04-30 14:51 | 36.07445 | -115.16729 | 2187 ft | 10 kts | 337° |
| 2026-04-30 14:51 | 36.07741 | -115.16569 | 2153 ft | 64 kts | 25° |
| 2026-04-30 14:52 | 36.08384 | -115.16201 | 2128 ft | 136 kts | 25° |
| 2026-04-30 14:52 | 36.10567 | -115.15009 | 2938 ft | 191 kts | 18° |
| 2026-04-30 14:52 | 36.11869 | -115.14939 | 3801 ft | 197 kts | 343° |
| 2026-04-30 14:53 | 36.13269 | -115.18135 | 4680 ft | 266 kts | 269° |
| 2026-04-30 14:53 | 36.12871 | -115.20434 | 5500 ft | 277 kts | 251° |
| 2026-04-30 14:54 | 36.11475 | -115.24967 | 7474 ft | 286 kts | 252° |
| 2026-04-30 14:54 | 36.09635 | -115.29261 | 9603 ft | 293 kts | 219° |
| 2026-04-30 14:55 | 36.05796 | -115.31477 | 10906 ft | 331 kts | 201° |
| 2026-04-30 14:55 | 36.03572 | -115.32509 | 11493 ft | 348 kts | 201° |
| 2026-04-30 14:55 | 35.98987 | -115.34701 | 13402 ft | 359 kts | 203° |
| 2026-04-30 14:56 | 35.94305 | -115.36953 | 15296 ft | 367 kts | 204° |
| 2026-04-30 14:56 | 35.89199 | -115.38016 | 17103 ft | 381 kts | 183° |
| 2026-04-30 14:57 | 35.86523 | -115.38060 | 17986 ft | 387 kts | 182° |
| 2026-04-30 14:57 | 35.81013 | -115.38163 | 19387 ft | 402 kts | 182° |
| 2026-04-30 14:58 | 35.75383 | -115.38321 | 20933 ft | 411 kts | 183° |
| 2026-04-30 14:58 | 35.72499 | -115.38413 | 21667 ft | 416 kts | 183° |
| 2026-04-30 14:58 | 35.66647 | -115.38603 | 23053 ft | 427 kts | 182° |
| 2026-04-30 14:59 | 35.60631 | -115.38788 | 24324 ft | 436 kts | 181° |
| 2026-04-30 15:00 | 35.51461 | -115.38139 | 26261 ft | 443 kts | 177° |
| 2026-04-30 15:00 | 35.45263 | -115.37799 | 27367 ft | 448 kts | 186° |
| 2026-04-30 15:01 | 35.39460 | -115.40299 | 27958 ft | 448 kts | 209° |
| 2026-04-30 15:01 | 35.36739 | -115.42091 | 27988 ft | 442 kts | 210° |
| 2026-04-30 15:01 | 35.31381 | -115.45692 | 27997 ft | 439 kts | 210° |
| 2026-04-30 15:02 | 35.28684 | -115.47461 | 27985 ft | 440 kts | 209° |
| 2026-04-30 15:02 | 35.25967 | -115.49215 | 27984 ft | 441 kts | 209° |
| 2026-04-30 15:03 | 35.17792 | -115.54428 | 27966 ft | 441 kts | 208° |
| 2026-04-30 15:03 | 35.12428 | -115.57968 | 27953 ft | 439 kts | 216° |
| 2026-04-30 15:04 | 35.08127 | -115.63194 | 27970 ft | 435 kts | 229° |
| 2026-04-30 15:04 | 35.01897 | -115.71315 | 27960 ft | 438 kts | 227° |
| 2026-04-30 15:05 | 34.95573 | -115.79393 | 27954 ft | 441 kts | 227° |
| 2026-04-30 15:06 | 34.91314 | -115.84801 | 27944 ft | 442 kts | 227° |
| 2026-04-30 15:06 | 34.87060 | -115.90196 | 27942 ft | 441 kts | 227° |
| 2026-04-30 15:07 | 34.82810 | -115.95581 | 27942 ft | 440 kts | 226° |
| 2026-04-30 15:07 | 34.78581 | -116.00933 | 27943 ft | 442 kts | 226° |
| 2026-04-30 15:08 | 34.74317 | -116.06339 | 27934 ft | 443 kts | 226° |
| 2026-04-30 15:08 | 34.67937 | -116.14470 | 27931 ft | 444 kts | 226° |
| 2026-04-30 15:09 | 34.63665 | -116.19902 | 27934 ft | 444 kts | 226° |
| 2026-04-30 15:09 | 34.59397 | -116.25318 | 27930 ft | 443 kts | 226° |
| 2026-04-30 15:10 | 34.55129 | -116.30724 | 27938 ft | 444 kts | 226° |
| 2026-04-30 15:11 | 34.46578 | -116.41534 | 27938 ft | 445 kts | 226° |
| 2026-04-30 15:11 | 34.42288 | -116.46963 | 27933 ft | 446 kts | 228° |
| 2026-04-30 15:12 | 34.37892 | -116.56786 | 27938 ft | 445 kts | 245° |
| 2026-04-30 15:13 | 34.35172 | -116.63543 | 27933 ft | 448 kts | 244° |
| 2026-04-30 15:14 | 34.29638 | -116.77135 | 27620 ft | 449 kts | 245° |
| 2026-04-30 15:14 | 34.25632 | -116.87110 | 25873 ft | 433 kts | 245° |
| 2026-04-30 15:16 | 34.19578 | -117.03390 | 22714 ft | 416 kts | 254° |
| 2026-04-30 15:17 | 34.16216 | -117.16418 | 20232 ft | 399 kts | 253° |
| 2026-04-30 15:18 | 34.11946 | -117.31892 | 17199 ft | 380 kts | 252° |
| 2026-04-30 15:19 | 34.09546 | -117.40845 | 15385 ft | 367 kts | 253° |